sensor_id;sensor_type;location;lat;lon;timestamp;P1;durP1;ratioP1;P2;durP2;ratioP2
52432;SDS011;38352;53.244;6.594;2023-07-31T00:00:46;9.40;;;5.35;;
52432;SDS011;38352;53.244;6.594;2023-07-31T00:03:17;9.20;;;5.15;;
52432;SDS011;38352;53.244;6.594;2023-07-31T00:05:47;8.80;;;5.53;;
52432;SDS011;38352;53.244;6.594;2023-07-31T00:08:26;7.47;;;5.13;;
52432;SDS011;38352;53.244;6.594;2023-07-31T00:10:57;8.32;;;4.88;;
52432;SDS011;38352;53.244;6.594;2023-07-31T00:13:23;10.52;;;5.60;;
52432;SDS011;38352;53.244;6.594;2023-07-31T00:15:49;9.57;;;6.22;;
52432;SDS011;38352;53.244;6.594;2023-07-31T00:18:15;11.30;;;6.07;;
52432;SDS011;38352;53.244;6.594;2023-07-31T00:20:50;8.85;;;5.95;;
52432;SDS011;38352;53.244;6.594;2023-07-31T00:23:26;10.55;;;5.85;;
52432;SDS011;38352;53.244;6.594;2023-07-31T00:25:54;9.80;;;5.95;;
52432;SDS011;38352;53.244;6.594;2023-07-31T00:28:25;13.23;;;6.47;;
52432;SDS011;38352;53.244;6.594;2023-07-31T00:31:00;11.30;;;6.65;;
52432;SDS011;38352;53.244;6.594;2023-07-31T00:33:29;9.82;;;6.15;;
52432;SDS011;38352;53.244;6.594;2023-07-31T00:35:55;9.10;;;5.03;;
52432;SDS011;38352;53.244;6.594;2023-07-31T00:38:35;8.43;;;4.95;;
52432;SDS011;38352;53.244;6.594;2023-07-31T00:41:07;10.13;;;6.00;;
52432;SDS011;38352;53.244;6.594;2023-07-31T00:43:36;10.00;;;5.38;;
52432;SDS011;38352;53.244;6.594;2023-07-31T00:46:02;7.72;;;4.68;;
52432;SDS011;38352;53.244;6.594;2023-07-31T00:48:31;7.40;;;4.50;;
52432;SDS011;38352;53.244;6.594;2023-07-31T00:50:57;7.82;;;4.68;;
52432;SDS011;38352;53.244;6.594;2023-07-31T00:53:24;7.55;;;5.22;;
52432;SDS011;38352;53.244;6.594;2023-07-31T00:55:52;8.60;;;5.15;;
52432;SDS011;38352;53.244;6.594;2023-07-31T00:58:18;7.88;;;5.40;;
52432;SDS011;38352;53.244;6.594;2023-07-31T01:00:47;8.98;;;6.15;;
52432;SDS011;38352;53.244;6.594;2023-07-31T01:03:17;8.63;;;5.55;;
52432;SDS011;38352;53.244;6.594;2023-07-31T01:08:40;10.48;;;5.45;;
52432;SDS011;38352;53.244;6.594;2023-07-31T01:11:31;8.10;;;5.22;;
52432;SDS011;38352;53.244;6.594;2023-07-31T01:14:04;9.07;;;5.70;;
52432;SDS011;38352;53.244;6.594;2023-07-31T01:16:38;10.73;;;5.60;;
52432;SDS011;38352;53.244;6.594;2023-07-31T01:19:23;7.78;;;5.20;;
52432;SDS011;38352;53.244;6.594;2023-07-31T01:27:06;7.85;;;4.90;;
52432;SDS011;38352;53.244;6.594;2023-07-31T01:29:49;7.63;;;5.05;;
52432;SDS011;38352;53.244;6.594;2023-07-31T01:32:21;7.22;;;4.50;;
52432;SDS011;38352;53.244;6.594;2023-07-31T01:34:48;6.45;;;3.88;;
52432;SDS011;38352;53.244;6.594;2023-07-31T01:37:15;7.90;;;4.38;;
52432;SDS011;38352;53.244;6.594;2023-07-31T01:39:45;6.57;;;4.15;;
52432;SDS011;38352;53.244;6.594;2023-07-31T01:42:14;8.07;;;4.60;;
52432;SDS011;38352;53.244;6.594;2023-07-31T01:44:48;9.30;;;4.90;;
52432;SDS011;38352;53.244;6.594;2023-07-31T01:47:16;6.68;;;4.45;;
52432;SDS011;38352;53.244;6.594;2023-07-31T01:49:43;13.23;;;5.90;;
52432;SDS011;38352;53.244;6.594;2023-07-31T01:52:14;9.13;;;5.45;;
52432;SDS011;38352;53.244;6.594;2023-07-31T01:54:45;7.68;;;4.97;;
52432;SDS011;38352;53.244;6.594;2023-07-31T01:57:13;8.90;;;5.07;;
52432;SDS011;38352;53.244;6.594;2023-07-31T01:59:39;8.15;;;5.05;;
52432;SDS011;38352;53.244;6.594;2023-07-31T02:02:05;10.52;;;5.50;;
52432;SDS011;38352;53.244;6.594;2023-07-31T02:04:36;8.93;;;4.93;;
52432;SDS011;38352;53.244;6.594;2023-07-31T02:07:05;8.45;;;5.30;;
52432;SDS011;38352;53.244;6.594;2023-07-31T02:09:34;6.95;;;4.40;;
52432;SDS011;38352;53.244;6.594;2023-07-31T02:12:00;7.65;;;4.90;;
52432;SDS011;38352;53.244;6.594;2023-07-31T02:14:31;7.78;;;4.47;;
52432;SDS011;38352;53.244;6.594;2023-07-31T02:16:57;9.45;;;5.30;;
52432;SDS011;38352;53.244;6.594;2023-07-31T02:19:23;7.38;;;4.38;;
52432;SDS011;38352;53.244;6.594;2023-07-31T02:21:52;8.35;;;4.82;;
52432;SDS011;38352;53.244;6.594;2023-07-31T02:24:18;11.25;;;4.55;;
52432;SDS011;38352;53.244;6.594;2023-07-31T02:26:44;7.57;;;4.20;;
52432;SDS011;38352;53.244;6.594;2023-07-31T02:29:10;4.70;;;3.03;;
52432;SDS011;38352;53.244;6.594;2023-07-31T02:31:37;5.93;;;3.33;;
52432;SDS011;38352;53.244;6.594;2023-07-31T02:34:05;6.32;;;3.83;;
52432;SDS011;38352;53.244;6.594;2023-07-31T02:36:31;6.47;;;3.92;;
52432;SDS011;38352;53.244;6.594;2023-07-31T02:39:00;5.70;;;3.60;;
52432;SDS011;38352;53.244;6.594;2023-07-31T02:41:29;7.25;;;3.63;;
52432;SDS011;38352;53.244;6.594;2023-07-31T02:43:55;6.28;;;3.33;;
52432;SDS011;38352;53.244;6.594;2023-07-31T02:46:21;5.75;;;3.90;;
52432;SDS011;38352;53.244;6.594;2023-07-31T02:48:50;5.07;;;3.25;;
52432;SDS011;38352;53.244;6.594;2023-07-31T02:51:16;5.57;;;3.38;;
52432;SDS011;38352;53.244;6.594;2023-07-31T02:53:42;8.27;;;3.67;;
52432;SDS011;38352;53.244;6.594;2023-07-31T02:56:08;7.70;;;3.28;;
52432;SDS011;38352;53.244;6.594;2023-07-31T02:58:35;6.57;;;3.67;;
52432;SDS011;38352;53.244;6.594;2023-07-31T03:01:03;7.00;;;3.70;;
52432;SDS011;38352;53.244;6.594;2023-07-31T03:03:40;7.15;;;3.70;;
52432;SDS011;38352;53.244;6.594;2023-07-31T03:06:11;7.28;;;3.25;;
52432;SDS011;38352;53.244;6.594;2023-07-31T03:08:37;8.25;;;3.35;;
52432;SDS011;38352;53.244;6.594;2023-07-31T03:11:04;6.20;;;3.50;;
52432;SDS011;38352;53.244;6.594;2023-07-31T03:13:40;5.63;;;3.30;;
52432;SDS011;38352;53.244;6.594;2023-07-31T03:16:17;9.82;;;3.10;;
52432;SDS011;38352;53.244;6.594;2023-07-31T03:18:43;6.22;;;2.75;;
52432;SDS011;38352;53.244;6.594;2023-07-31T03:21:12;6.32;;;2.75;;
52432;SDS011;38352;53.244;6.594;2023-07-31T03:23:40;6.88;;;3.10;;
52432;SDS011;38352;53.244;6.594;2023-07-31T03:26:23;6.10;;;2.90;;
52432;SDS011;38352;53.244;6.594;2023-07-31T03:28:49;7.50;;;2.92;;
52432;SDS011;38352;53.244;6.594;2023-07-31T03:31:15;5.35;;;2.88;;
52432;SDS011;38352;53.244;6.594;2023-07-31T03:33:51;6.55;;;3.25;;
52432;SDS011;38352;53.244;6.594;2023-07-31T03:36:19;6.18;;;3.10;;
52432;SDS011;38352;53.244;6.594;2023-07-31T03:38:51;6.82;;;2.60;;
52432;SDS011;38352;53.244;6.594;2023-07-31T03:41:17;5.50;;;2.53;;
52432;SDS011;38352;53.244;6.594;2023-07-31T03:43:50;6.50;;;2.88;;
52432;SDS011;38352;53.244;6.594;2023-07-31T03:46:25;5.70;;;2.90;;
52432;SDS011;38352;53.244;6.594;2023-07-31T03:48:52;4.25;;;2.60;;
52432;SDS011;38352;53.244;6.594;2023-07-31T03:51:18;4.90;;;2.28;;
52432;SDS011;38352;53.244;6.594;2023-07-31T03:53:44;9.02;;;2.55;;
52432;SDS011;38352;53.244;6.594;2023-07-31T03:56:10;4.78;;;2.40;;
52432;SDS011;38352;53.244;6.594;2023-07-31T03:58:39;4.97;;;2.20;;
52432;SDS011;38352;53.244;6.594;2023-07-31T04:01:05;4.75;;;2.20;;
52432;SDS011;38352;53.244;6.594;2023-07-31T04:03:37;4.45;;;2.25;;
52432;SDS011;38352;53.244;6.594;2023-07-31T04:06:14;5.78;;;2.70;;
52432;SDS011;38352;53.244;6.594;2023-07-31T04:08:46;5.35;;;2.30;;
52432;SDS011;38352;53.244;6.594;2023-07-31T04:11:12;3.85;;;1.70;;
52432;SDS011;38352;53.244;6.594;2023-07-31T04:13:41;5.03;;;2.05;;
52432;SDS011;38352;53.244;6.594;2023-07-31T04:16:07;5.75;;;2.38;;
52432;SDS011;38352;53.244;6.594;2023-07-31T04:18:35;4.30;;;1.80;;
52432;SDS011;38352;53.244;6.594;2023-07-31T04:21:02;5.70;;;1.90;;
52432;SDS011;38352;53.244;6.594;2023-07-31T04:23:28;6.63;;;2.40;;
52432;SDS011;38352;53.244;6.594;2023-07-31T04:25:54;5.03;;;2.50;;
52432;SDS011;38352;53.244;6.594;2023-07-31T04:28:22;4.43;;;2.05;;
52432;SDS011;38352;53.244;6.594;2023-07-31T04:30:51;5.70;;;2.20;;
52432;SDS011;38352;53.244;6.594;2023-07-31T04:33:20;4.25;;;2.50;;
52432;SDS011;38352;53.244;6.594;2023-07-31T04:35:55;5.43;;;2.10;;
52432;SDS011;38352;53.244;6.594;2023-07-31T04:38:21;5.68;;;2.42;;
52432;SDS011;38352;53.244;6.594;2023-07-31T04:40:50;5.10;;;2.00;;
52432;SDS011;38352;53.244;6.594;2023-07-31T04:43:19;5.95;;;2.30;;
52432;SDS011;38352;53.244;6.594;2023-07-31T04:45:45;5.22;;;1.80;;
52432;SDS011;38352;53.244;6.594;2023-07-31T04:48:15;4.78;;;1.80;;
52432;SDS011;38352;53.244;6.594;2023-07-31T04:50:44;3.17;;;1.85;;
52432;SDS011;38352;53.244;6.594;2023-07-31T04:53:18;4.28;;;1.60;;
52432;SDS011;38352;53.244;6.594;2023-07-31T04:55:50;4.30;;;2.15;;
52432;SDS011;38352;53.244;6.594;2023-07-31T04:58:16;3.63;;;1.70;;
52432;SDS011;38352;53.244;6.594;2023-07-31T05:00:42;3.03;;;1.50;;
52432;SDS011;38352;53.244;6.594;2023-07-31T05:03:11;3.97;;;1.52;;
52432;SDS011;38352;53.244;6.594;2023-07-31T05:05:39;3.30;;;1.30;;
52432;SDS011;38352;53.244;6.594;2023-07-31T05:08:06;3.22;;;1.52;;
52432;SDS011;38352;53.244;6.594;2023-07-31T05:10:34;2.33;;;1.40;;
52432;SDS011;38352;53.244;6.594;2023-07-31T05:13:00;4.00;;;1.67;;
52432;SDS011;38352;53.244;6.594;2023-07-31T05:15:27;4.32;;;1.50;;
52432;SDS011;38352;53.244;6.594;2023-07-31T05:17:53;4.03;;;1.75;;
52432;SDS011;38352;53.244;6.594;2023-07-31T05:20:24;4.15;;;1.50;;
52432;SDS011;38352;53.244;6.594;2023-07-31T05:22:55;5.95;;;1.60;;
52432;SDS011;38352;53.244;6.594;2023-07-31T05:25:28;4.47;;;1.40;;
52432;SDS011;38352;53.244;6.594;2023-07-31T05:27:56;3.47;;;1.45;;
52432;SDS011;38352;53.244;6.594;2023-07-31T05:30:33;2.33;;;1.10;;
52432;SDS011;38352;53.244;6.594;2023-07-31T05:33:06;2.80;;;1.40;;
52432;SDS011;38352;53.244;6.594;2023-07-31T05:35:32;3.97;;;1.67;;
52432;SDS011;38352;53.244;6.594;2023-07-31T05:37:59;3.67;;;1.20;;
52432;SDS011;38352;53.244;6.594;2023-07-31T05:40:40;4.80;;;1.20;;
52432;SDS011;38352;53.244;6.594;2023-07-31T05:43:08;3.17;;;1.08;;
52432;SDS011;38352;53.244;6.594;2023-07-31T05:45:35;5.07;;;1.30;;
52432;SDS011;38352;53.244;6.594;2023-07-31T05:48:05;3.25;;;1.35;;
52432;SDS011;38352;53.244;6.594;2023-07-31T05:50:36;1.75;;;0.85;;
52432;SDS011;38352;53.244;6.594;2023-07-31T05:53:12;2.30;;;1.10;;
52432;SDS011;38352;53.244;6.594;2023-07-31T05:55:49;4.07;;;1.40;;
52432;SDS011;38352;53.244;6.594;2023-07-31T05:58:24;2.63;;;1.15;;
52432;SDS011;38352;53.244;6.594;2023-07-31T06:00:52;2.85;;;1.33;;
52432;SDS011;38352;53.244;6.594;2023-07-31T06:03:24;4.07;;;1.38;;
52432;SDS011;38352;53.244;6.594;2023-07-31T06:05:58;3.92;;;1.38;;
52432;SDS011;38352;53.244;6.594;2023-07-31T06:08:25;2.40;;;1.05;;
52432;SDS011;38352;53.244;6.594;2023-07-31T06:11:02;2.55;;;1.40;;
52432;SDS011;38352;53.244;6.594;2023-07-31T06:13:28;3.15;;;1.27;;
52432;SDS011;38352;53.244;6.594;2023-07-31T06:15:56;6.68;;;1.88;;
52432;SDS011;38352;53.244;6.594;2023-07-31T06:18:24;5.72;;;1.77;;
52432;SDS011;38352;53.244;6.594;2023-07-31T06:20:58;7.20;;;2.08;;
52432;SDS011;38352;53.244;6.594;2023-07-31T06:23:37;6.05;;;2.00;;
52432;SDS011;38352;53.244;6.594;2023-07-31T06:26:11;4.72;;;2.05;;
52432;SDS011;38352;53.244;6.594;2023-07-31T06:28:42;6.75;;;2.50;;
52432;SDS011;38352;53.244;6.594;2023-07-31T06:31:11;6.97;;;2.85;;
52432;SDS011;38352;53.244;6.594;2023-07-31T06:33:40;8.90;;;2.92;;
52432;SDS011;38352;53.244;6.594;2023-07-31T06:36:06;15.25;;;3.70;;
52432;SDS011;38352;53.244;6.594;2023-07-31T06:38:34;17.23;;;5.70;;
52432;SDS011;38352;53.244;6.594;2023-07-31T06:41:02;10.30;;;4.35;;
52432;SDS011;38352;53.244;6.594;2023-07-31T06:43:34;14.65;;;5.35;;
52432;SDS011;38352;53.244;6.594;2023-07-31T06:46:09;19.90;;;5.88;;
52432;SDS011;38352;53.244;6.594;2023-07-31T06:48:36;19.90;;;6.38;;
52432;SDS011;38352;53.244;6.594;2023-07-31T06:51:05;21.33;;;6.68;;
52432;SDS011;38352;53.244;6.594;2023-07-31T06:53:41;26.92;;;8.65;;
52432;SDS011;38352;53.244;6.594;2023-07-31T06:56:10;24.17;;;8.35;;
52432;SDS011;38352;53.244;6.594;2023-07-31T06:58:36;22.60;;;7.97;;
52432;SDS011;38352;53.244;6.594;2023-07-31T07:01:02;21.92;;;8.02;;
52432;SDS011;38352;53.244;6.594;2023-07-31T07:03:28;28.35;;;8.48;;
52432;SDS011;38352;53.244;6.594;2023-07-31T07:06:12;23.58;;;8.10;;
52432;SDS011;38352;53.244;6.594;2023-07-31T07:09:02;25.40;;;9.30;;
52432;SDS011;38352;53.244;6.594;2023-07-31T07:11:42;30.10;;;8.80;;
52432;SDS011;38352;53.244;6.594;2023-07-31T07:14:08;24.10;;;9.00;;
52432;SDS011;38352;53.244;6.594;2023-07-31T07:16:35;45.05;;;9.65;;
52432;SDS011;38352;53.244;6.594;2023-07-31T07:19:03;27.20;;;8.75;;
52432;SDS011;38352;53.244;6.594;2023-07-31T07:24:32;26.42;;;8.50;;
52432;SDS011;38352;53.244;6.594;2023-07-31T07:27:19;31.58;;;8.68;;
52432;SDS011;38352;53.244;6.594;2023-07-31T07:29:59;24.25;;;8.48;;
52432;SDS011;38352;53.244;6.594;2023-07-31T07:32:41;24.38;;;10.15;;
52432;SDS011;38352;53.244;6.594;2023-07-31T07:35:17;21.10;;;7.68;;
52432;SDS011;38352;53.244;6.594;2023-07-31T07:37:54;23.20;;;8.18;;
52432;SDS011;38352;53.244;6.594;2023-07-31T07:40:22;26.63;;;8.48;;
52432;SDS011;38352;53.244;6.594;2023-07-31T07:43:16;24.98;;;8.52;;
52432;SDS011;38352;53.244;6.594;2023-07-31T07:45:45;29.10;;;9.00;;
52432;SDS011;38352;53.244;6.594;2023-07-31T07:48:18;21.63;;;8.25;;
52432;SDS011;38352;53.244;6.594;2023-07-31T07:50:49;25.00;;;9.75;;
52432;SDS011;38352;53.244;6.594;2023-07-31T07:53:18;21.70;;;9.35;;
52432;SDS011;38352;53.244;6.594;2023-07-31T07:55:44;23.90;;;10.18;;
52432;SDS011;38352;53.244;6.594;2023-07-31T07:58:12;23.65;;;9.13;;
52432;SDS011;38352;53.244;6.594;2023-07-31T08:00:48;23.05;;;8.00;;
52432;SDS011;38352;53.244;6.594;2023-07-31T08:03:17;16.55;;;6.47;;
52432;SDS011;38352;53.244;6.594;2023-07-31T08:05:43;13.23;;;4.90;;
52432;SDS011;38352;53.244;6.594;2023-07-31T08:08:14;7.38;;;2.90;;
52432;SDS011;38352;53.244;6.594;2023-07-31T08:10:41;5.75;;;2.30;;
52432;SDS011;38352;53.244;6.594;2023-07-31T08:13:13;5.60;;;2.42;;
52432;SDS011;38352;53.244;6.594;2023-07-31T08:15:46;8.13;;;2.97;;
52432;SDS011;38352;53.244;6.594;2023-07-31T08:18:13;5.50;;;1.98;;
52432;SDS011;38352;53.244;6.594;2023-07-31T08:20:41;3.53;;;1.70;;
52432;SDS011;38352;53.244;6.594;2023-07-31T08:23:13;4.35;;;1.80;;
52432;SDS011;38352;53.244;6.594;2023-07-31T08:25:42;4.88;;;1.95;;
52432;SDS011;38352;53.244;6.594;2023-07-31T08:28:18;5.00;;;2.15;;
52432;SDS011;38352;53.244;6.594;2023-07-31T08:31:02;4.40;;;1.90;;
52432;SDS011;38352;53.244;6.594;2023-07-31T08:33:31;6.43;;;1.85;;
52432;SDS011;38352;53.244;6.594;2023-07-31T08:36:00;5.40;;;1.83;;
52432;SDS011;38352;53.244;6.594;2023-07-31T08:38:34;7.85;;;2.78;;
52432;SDS011;38352;53.244;6.594;2023-07-31T08:41:06;5.30;;;2.30;;
52432;SDS011;38352;53.244;6.594;2023-07-31T08:43:32;5.35;;;2.35;;
52432;SDS011;38352;53.244;6.594;2023-07-31T08:46:00;5.80;;;2.28;;
52432;SDS011;38352;53.244;6.594;2023-07-31T08:48:33;3.70;;;1.93;;
52432;SDS011;38352;53.244;6.594;2023-07-31T08:51:06;4.05;;;1.70;;
52432;SDS011;38352;53.244;6.594;2023-07-31T08:53:39;5.25;;;2.05;;
52432;SDS011;38352;53.244;6.594;2023-07-31T08:56:08;4.68;;;1.70;;
52432;SDS011;38352;53.244;6.594;2023-07-31T08:58:35;4.88;;;2.28;;
52432;SDS011;38352;53.244;6.594;2023-07-31T09:01:07;5.47;;;1.98;;
52432;SDS011;38352;53.244;6.594;2023-07-31T09:03:34;6.85;;;1.88;;
52432;SDS011;38352;53.244;6.594;2023-07-31T09:06:03;4.18;;;1.80;;
52432;SDS011;38352;53.244;6.594;2023-07-31T09:08:32;3.25;;;1.65;;
52432;SDS011;38352;53.244;6.594;2023-07-31T09:13:56;4.80;;;1.85;;
52432;SDS011;38352;53.244;6.594;2023-07-31T09:16:38;4.18;;;1.60;;
52432;SDS011;38352;53.244;6.594;2023-07-31T09:19:32;3.78;;;1.88;;
52432;SDS011;38352;53.244;6.594;2023-07-31T09:21:59;2.30;;;1.30;;
52432;SDS011;38352;53.244;6.594;2023-07-31T09:24:43;5.18;;;1.50;;
52432;SDS011;38352;53.244;6.594;2023-07-31T09:27:12;2.70;;;1.38;;
52432;SDS011;38352;53.244;6.594;2023-07-31T09:29:46;4.25;;;1.30;;
52432;SDS011;38352;53.244;6.594;2023-07-31T09:32:24;2.63;;;1.30;;
52432;SDS011;38352;53.244;6.594;2023-07-31T09:34:50;2.83;;;1.40;;
52432;SDS011;38352;53.244;6.594;2023-07-31T09:37:25;2.70;;;1.20;;
52432;SDS011;38352;53.244;6.594;2023-07-31T09:39:53;2.92;;;1.20;;
52432;SDS011;38352;53.244;6.594;2023-07-31T09:42:26;2.92;;;1.33;;
52432;SDS011;38352;53.244;6.594;2023-07-31T09:44:53;2.55;;;1.27;;
52432;SDS011;38352;53.244;6.594;2023-07-31T09:47:23;3.63;;;1.42;;
52432;SDS011;38352;53.244;6.594;2023-07-31T09:49:52;2.85;;;1.50;;
52432;SDS011;38352;53.244;6.594;2023-07-31T09:52:18;2.33;;;1.20;;
52432;SDS011;38352;53.244;6.594;2023-07-31T09:54:44;2.88;;;1.10;;
52432;SDS011;38352;53.244;6.594;2023-07-31T09:57:10;2.28;;;1.25;;
52432;SDS011;38352;53.244;6.594;2023-07-31T09:59:37;1.35;;;0.80;;
52432;SDS011;38352;53.244;6.594;2023-07-31T10:02:03;1.30;;;0.80;;
52432;SDS011;38352;53.244;6.594;2023-07-31T10:04:30;3.00;;;0.90;;
52432;SDS011;38352;53.244;6.594;2023-07-31T10:06:56;1.88;;;0.80;;
52432;SDS011;38352;53.244;6.594;2023-07-31T10:09:24;2.35;;;1.00;;
52432;SDS011;38352;53.244;6.594;2023-07-31T10:12:00;2.33;;;0.90;;
52432;SDS011;38352;53.244;6.594;2023-07-31T10:14:28;1.42;;;0.70;;
52432;SDS011;38352;53.244;6.594;2023-07-31T10:16:58;1.33;;;0.70;;
52432;SDS011;38352;53.244;6.594;2023-07-31T10:19:25;1.48;;;0.68;;
52432;SDS011;38352;53.244;6.594;2023-07-31T10:21:55;2.10;;;0.68;;
52432;SDS011;38352;53.244;6.594;2023-07-31T10:24:32;0.95;;;0.60;;
52432;SDS011;38352;53.244;6.594;2023-07-31T10:26:59;2.50;;;0.60;;
52432;SDS011;38352;53.244;6.594;2023-07-31T10:29:31;4.90;;;0.47;;
52432;SDS011;38352;53.244;6.594;2023-07-31T10:31:57;0.95;;;0.40;;
52432;SDS011;38352;53.244;6.594;2023-07-31T10:34:30;1.85;;;0.60;;
52432;SDS011;38352;53.244;6.594;2023-07-31T10:40:00;1.10;;;0.28;;
52432;SDS011;38352;53.244;6.594;2023-07-31T10:42:35;0.47;;;0.30;;
52432;SDS011;38352;53.244;6.594;2023-07-31T10:45:05;1.98;;;0.60;;
52432;SDS011;38352;53.244;6.594;2023-07-31T10:47:36;2.88;;;0.90;;
52432;SDS011;38352;53.244;6.594;2023-07-31T10:50:18;2.53;;;0.50;;
52432;SDS011;38352;53.244;6.594;2023-07-31T10:52:54;0.65;;;0.30;;
52432;SDS011;38352;53.244;6.594;2023-07-31T10:57:52;0.60;;;0.50;;
52432;SDS011;38352;53.244;6.594;2023-07-31T11:00:21;1.20;;;0.50;;
52432;SDS011;38352;53.244;6.594;2023-07-31T11:02:58;1.88;;;0.70;;
52432;SDS011;38352;53.244;6.594;2023-07-31T11:05:40;1.52;;;0.73;;
52432;SDS011;38352;53.244;6.594;2023-07-31T11:11:09;1.70;;;0.90;;
52432;SDS011;38352;53.244;6.594;2023-07-31T11:13:48;3.67;;;1.13;;
52432;SDS011;38352;53.244;6.594;2023-07-31T11:16:15;3.67;;;1.60;;
52432;SDS011;38352;53.244;6.594;2023-07-31T11:18:45;2.50;;;1.40;;
52432;SDS011;38352;53.244;6.594;2023-07-31T11:23:40;4.15;;;1.55;;
52432;SDS011;38352;53.244;6.594;2023-07-31T11:26:07;2.45;;;1.08;;
52432;SDS011;38352;53.244;6.594;2023-07-31T11:28:38;1.98;;;0.95;;
52432;SDS011;38352;53.244;6.594;2023-07-31T11:31:08;1.70;;;0.90;;
52432;SDS011;38352;53.244;6.594;2023-07-31T11:33:37;2.15;;;0.90;;
52432;SDS011;38352;53.244;6.594;2023-07-31T11:36:14;2.08;;;0.88;;
52432;SDS011;38352;53.244;6.594;2023-07-31T11:38:40;2.70;;;1.17;;
52432;SDS011;38352;53.244;6.594;2023-07-31T11:41:07;2.05;;;1.23;;
52432;SDS011;38352;53.244;6.594;2023-07-31T11:43:40;3.38;;;1.63;;
52432;SDS011;38352;53.244;6.594;2023-07-31T11:46:09;4.75;;;1.52;;
52432;SDS011;38352;53.244;6.594;2023-07-31T11:48:36;6.28;;;1.75;;
52432;SDS011;38352;53.244;6.594;2023-07-31T11:51:03;3.80;;;1.73;;
52432;SDS011;38352;53.244;6.594;2023-07-31T11:56:01;4.35;;;1.33;;
52432;SDS011;38352;53.244;6.594;2023-07-31T11:58:44;3.22;;;1.20;;
52432;SDS011;38352;53.244;6.594;2023-07-31T12:01:11;2.55;;;1.38;;
52432;SDS011;38352;53.244;6.594;2023-07-31T12:03:40;3.08;;;1.50;;
52432;SDS011;38352;53.244;6.594;2023-07-31T12:06:09;4.90;;;1.75;;
52432;SDS011;38352;53.244;6.594;2023-07-31T12:08:36;4.00;;;2.00;;
52432;SDS011;38352;53.244;6.594;2023-07-31T12:11:05;3.50;;;1.70;;
52432;SDS011;38352;53.244;6.594;2023-07-31T12:13:32;7.05;;;1.67;;
52432;SDS011;38352;53.244;6.594;2023-07-31T12:15:59;3.85;;;1.92;;
52432;SDS011;38352;53.244;6.594;2023-07-31T12:18:29;4.80;;;1.98;;
52432;SDS011;38352;53.244;6.594;2023-07-31T12:21:00;4.50;;;2.10;;
52432;SDS011;38352;53.244;6.594;2023-07-31T12:23:30;4.68;;;1.85;;
52432;SDS011;38352;53.244;6.594;2023-07-31T12:26:05;5.03;;;1.85;;
52432;SDS011;38352;53.244;6.594;2023-07-31T12:28:35;5.78;;;1.90;;
52432;SDS011;38352;53.244;6.594;2023-07-31T12:31:04;2.85;;;1.40;;
52432;SDS011;38352;53.244;6.594;2023-07-31T12:33:35;4.00;;;1.77;;
52432;SDS011;38352;53.244;6.594;2023-07-31T12:36:07;4.65;;;2.10;;
52432;SDS011;38352;53.244;6.594;2023-07-31T12:38:37;5.10;;;2.13;;
52432;SDS011;38352;53.244;6.594;2023-07-31T12:41:03;5.60;;;1.83;;
52432;SDS011;38352;53.244;6.594;2023-07-31T12:43:39;5.57;;;2.15;;
52432;SDS011;38352;53.244;6.594;2023-07-31T12:48:57;4.45;;;2.42;;
52432;SDS011;38352;53.244;6.594;2023-07-31T12:51:28;4.00;;;1.80;;
52432;SDS011;38352;53.244;6.594;2023-07-31T12:54:07;4.65;;;1.77;;
52432;SDS011;38352;53.244;6.594;2023-07-31T12:59:07;3.97;;;2.33;;
52432;SDS011;38352;53.244;6.594;2023-07-31T13:01:35;4.88;;;2.10;;
52432;SDS011;38352;53.244;6.594;2023-07-31T13:04:07;3.38;;;2.03;;
52432;SDS011;38352;53.244;6.594;2023-07-31T13:06:42;5.05;;;1.90;;
52432;SDS011;38352;53.244;6.594;2023-07-31T13:09:16;4.43;;;1.85;;
52432;SDS011;38352;53.244;6.594;2023-07-31T13:14:15;5.85;;;2.30;;
52432;SDS011;38352;53.244;6.594;2023-07-31T13:16:46;6.35;;;2.72;;
52432;SDS011;38352;53.244;6.594;2023-07-31T13:19:15;5.10;;;2.55;;
52432;SDS011;38352;53.244;6.594;2023-07-31T13:21:48;7.70;;;2.15;;
52432;SDS011;38352;53.244;6.594;2023-07-31T13:24:17;7.90;;;3.17;;
52432;SDS011;38352;53.244;6.594;2023-07-31T13:26:51;8.13;;;2.80;;
52432;SDS011;38352;53.244;6.594;2023-07-31T13:29:40;7.18;;;3.13;;
52432;SDS011;38352;53.244;6.594;2023-07-31T13:32:09;10.25;;;3.90;;
52432;SDS011;38352;53.244;6.594;2023-07-31T13:34:38;8.52;;;3.65;;
52432;SDS011;38352;53.244;6.594;2023-07-31T13:37:05;7.35;;;2.67;;
52432;SDS011;38352;53.244;6.594;2023-07-31T13:39:39;8.27;;;3.20;;
52432;SDS011;38352;53.244;6.594;2023-07-31T13:42:19;9.40;;;3.83;;
52432;SDS011;38352;53.244;6.594;2023-07-31T13:44:58;7.00;;;3.08;;
52432;SDS011;38352;53.244;6.594;2023-07-31T13:47:29;9.88;;;2.85;;
52432;SDS011;38352;53.244;6.594;2023-07-31T13:49:56;9.55;;;3.15;;
52432;SDS011;38352;53.244;6.594;2023-07-31T13:52:25;9.40;;;3.25;;
52432;SDS011;38352;53.244;6.594;2023-07-31T13:55:09;9.80;;;3.42;;
52432;SDS011;38352;53.244;6.594;2023-07-31T13:57:41;6.53;;;2.95;;
52432;SDS011;38352;53.244;6.594;2023-07-31T14:00:12;10.32;;;3.25;;
52432;SDS011;38352;53.244;6.594;2023-07-31T14:02:44;7.93;;;2.95;;
52432;SDS011;38352;53.244;6.594;2023-07-31T14:05:13;7.38;;;3.03;;
52432;SDS011;38352;53.244;6.594;2023-07-31T14:07:59;8.05;;;3.40;;
52432;SDS011;38352;53.244;6.594;2023-07-31T14:10:35;10.20;;;3.42;;
52432;SDS011;38352;53.244;6.594;2023-07-31T14:13:04;7.63;;;3.40;;
52432;SDS011;38352;53.244;6.594;2023-07-31T14:15:50;8.77;;;3.95;;
52432;SDS011;38352;53.244;6.594;2023-07-31T14:18:29;9.27;;;3.80;;
52432;SDS011;38352;53.244;6.594;2023-07-31T14:20:55;9.57;;;4.07;;
52432;SDS011;38352;53.244;6.594;2023-07-31T14:23:24;8.65;;;3.50;;
52432;SDS011;38352;53.244;6.594;2023-07-31T14:25:50;8.68;;;3.92;;
52432;SDS011;38352;53.244;6.594;2023-07-31T14:28:28;10.95;;;3.53;;
52432;SDS011;38352;53.244;6.594;2023-07-31T14:31:01;7.15;;;3.58;;
52432;SDS011;38352;53.244;6.594;2023-07-31T14:33:46;8.35;;;3.58;;
52432;SDS011;38352;53.244;6.594;2023-07-31T14:39:13;11.30;;;3.80;;
52432;SDS011;38352;53.244;6.594;2023-07-31T14:41:54;9.15;;;4.13;;
52432;SDS011;38352;53.244;6.594;2023-07-31T14:44:27;13.27;;;4.47;;
52432;SDS011;38352;53.244;6.594;2023-07-31T14:47:30;10.98;;;4.30;;
52432;SDS011;38352;53.244;6.594;2023-07-31T14:50:00;10.55;;;5.15;;
52432;SDS011;38352;53.244;6.594;2023-07-31T14:52:28;11.07;;;4.40;;
52432;SDS011;38352;53.244;6.594;2023-07-31T14:55:07;9.82;;;4.93;;
52432;SDS011;38352;53.244;6.594;2023-07-31T14:57:39;11.95;;;4.30;;
52432;SDS011;38352;53.244;6.594;2023-07-31T15:00:15;11.18;;;4.78;;
52432;SDS011;38352;53.244;6.594;2023-07-31T15:05:13;7.68;;;3.65;;
52432;SDS011;38352;53.244;6.594;2023-07-31T15:07:42;10.32;;;4.45;;
52432;SDS011;38352;53.244;6.594;2023-07-31T15:10:08;8.90;;;4.00;;
52432;SDS011;38352;53.244;6.594;2023-07-31T15:12:39;10.85;;;4.07;;
52432;SDS011;38352;53.244;6.594;2023-07-31T15:15:21;9.77;;;4.45;;
52432;SDS011;38352;53.244;6.594;2023-07-31T15:17:50;8.73;;;4.55;;
52432;SDS011;38352;53.244;6.594;2023-07-31T15:20:23;11.05;;;4.43;;
52432;SDS011;38352;53.244;6.594;2023-07-31T15:22:50;10.43;;;4.07;;
52432;SDS011;38352;53.244;6.594;2023-07-31T15:25:18;11.50;;;5.03;;
52432;SDS011;38352;53.244;6.594;2023-07-31T15:28:01;9.68;;;3.90;;
52432;SDS011;38352;53.244;6.594;2023-07-31T15:30:30;11.02;;;4.18;;
52432;SDS011;38352;53.244;6.594;2023-07-31T15:32:59;12.18;;;4.57;;
52432;SDS011;38352;53.244;6.594;2023-07-31T15:35:37;11.18;;;4.50;;
52432;SDS011;38352;53.244;6.594;2023-07-31T15:38:09;9.80;;;3.92;;
52432;SDS011;38352;53.244;6.594;2023-07-31T15:40:35;11.07;;;3.88;;
52432;SDS011;38352;53.244;6.594;2023-07-31T15:43:01;10.18;;;4.65;;
52432;SDS011;38352;53.244;6.594;2023-07-31T15:45:30;10.57;;;4.10;;
52432;SDS011;38352;53.244;6.594;2023-07-31T15:48:08;10.85;;;4.22;;